Time;durP1;ratioP1;P1;durP2;ratioP2;P2;SDS_P1;SDS_P2;PMS_P1;PMS_P2;Temp;Humidity;BMP_temperature;BMP_pressure;BME280_temperature;BME280_humidity;BME280_pressure;Samples;Min_cycle;Max_cycle;Signal;HPM_P1;HPM_P2
2023/09/08 00:02:13;;;;;;;6.90;3.00;;;;;;;19.25;44.85;101345.44;126687;1099;104246;-76
2023/09/08 00:04:44;;;;;;;7.17;3.20;;;;;;;19.17;45.16;101347.99;125865;1099;104179;-75
2023/09/08 00:07:16;;;;;;;7.77;3.10;;;;;;;19.11;44.98;101337.27;125919;1099;102051;-76
2023/09/08 00:09:47;;;;;;;7.33;3.10;;;;;;;19.09;44.71;101344.34;125890;1099;102016;-76
2023/09/08 00:12:18;;;;;;;5.73;3.17;;;;;;;19.09;44.89;101339.02;125741;1099;104175;-76
2023/09/08 00:14:50;;;;;;;9.20;3.25;;;;;;;19.07;44.63;101340.75;125824;1098;101772;-75
2023/09/08 00:17:21;;;;;;;5.93;3.00;;;;;;;19.04;44.68;101340.70;126745;1098;104232;-76
2023/09/08 00:19:52;;;;;;;4.60;2.90;;;;;;;19.01;44.86;101343.31;125941;1099;101812;-76
2023/09/08 00:22:24;;;;;;;6.07;2.97;;;;;;;19.01;44.79;101346.89;125975;1099;101904;-76
2023/09/08 00:24:56;;;;;;;6.00;3.00;;;;;;;18.97;44.78;101339.73;125633;1099;101819;-76
2023/09/08 00:27:27;;;;;;;7.90;3.33;;;;;;;18.95;44.76;101341.48;125492;1099;104163;-76
2023/09/08 00:29:58;;;;;;;7.13;3.37;;;;;;;18.92;45.09;101351.19;125511;1099;102766;-76
2023/09/08 00:32:30;;;;;;;6.30;2.97;;;;;;;18.90;44.54;101343.19;125556;1098;104235;-76
2023/09/08 00:35:01;;;;;;;6.83;3.20;;;;;;;18.90;44.90;101344.93;125640;1098;101954;-76
2023/09/08 00:37:32;;;;;;;9.77;3.30;;;;;;;18.88;44.79;101347.56;125715;1099;104172;-76
2023/09/08 00:40:04;;;;;;;7.23;3.40;;;;;;;18.85;45.02;101344.86;126719;1098;101743;-76
2023/09/08 00:42:35;;;;;;;6.70;3.37;;;;;;;18.82;44.76;101350.09;125857;1099;104165;-77
2023/09/08 00:45:08;;;;;;;9.47;3.30;;;;;;;18.81;44.96;101351.87;125956;1098;104226;-76
2023/09/08 00:47:39;;;;;;;5.93;3.10;;;;;;;18.78;45.04;101335.88;125899;1098;104133;-76
2023/09/08 00:50:12;;;;;;;7.93;3.20;;;;;;;18.77;45.13;101342.05;125811;1099;102218;-76
2023/09/08 00:52:43;;;;;;;7.27;3.67;;;;;;;18.70;44.74;101340.19;125449;1098;102055;-75
2023/09/08 00:55:15;;;;;;;6.37;3.40;;;;;;;18.56;44.90;101341.70;125388;1098;101822;-75
2023/09/08 00:57:46;;;;;;;5.97;2.97;;;;;;;18.45;45.01;101350.42;125366;1099;101869;-76
2023/09/08 01:00:18;;;;;;;7.37;3.00;;;;;;;18.40;45.12;101348.54;125469;1099;102090;-75
2023/09/08 01:02:49;;;;;;;7.50;3.43;;;;;;;18.33;44.65;101348.43;125548;1099;104374;-75
2023/09/08 01:05:22;;;;;;;8.57;3.37;;;;;;;18.29;45.02;101358.98;125470;1099;101797;-75
2023/09/08 01:07:55;;;;;;;12.30;3.20;;;;;;;18.24;45.15;101356.23;125476;1098;104242;-76
2023/09/08 01:10:27;;;;;;;9.40;3.65;;;;;;;18.21;45.13;101358.84;125715;1099;104248;-76
2023/09/08 01:12:59;;;;;;;9.13;3.27;;;;;;;18.21;45.31;101352.64;125931;1099;102090;-76
2023/09/08 01:15:30;;;;;;;8.07;3.57;;;;;;;18.22;45.41;101363.30;125886;1099;104337;-75
2023/09/08 01:18:01;;;;;;;6.80;3.13;;;;;;;18.21;45.45;101361.50;125756;1099;104205;-75
2023/09/08 01:20:47;;;;;;;7.43;3.30;;;;;;;18.21;45.22;101358.84;125418;1099;104214;-75
2023/09/08 01:23:29;;;;;;;11.03;3.50;;;;;;;18.18;45.58;101350.81;125997;1099;102084;-75
2023/09/08 01:26:05;;;;;;;7.70;3.80;;;;;;;18.16;45.41;101347.25;126183;1099;102029;-76
2023/09/08 01:28:38;;;;;;;6.23;3.23;;;;;;;18.15;45.24;101345.45;125571;1099;101998;-76
2023/09/08 01:31:11;;;;;;;6.97;3.47;;;;;;;18.13;45.42;101347.19;126041;1099;101859;-76
2023/09/08 01:33:43;;;;;;;7.90;2.90;;;;;;;18.10;45.32;101352.45;126047;1098;102080;-76
2023/09/08 01:36:16;;;;;;;8.27;3.40;;;;;;;18.07;45.51;101353.27;125656;1098;101807;-76
2023/09/08 01:38:47;;;;;;;9.00;3.50;;;;;;;17.94;45.71;101344.19;125436;1098;104268;-76
2023/09/08 01:41:19;;;;;;;10.47;3.27;;;;;;;17.78;46.00;101350.05;125352;1098;104326;-75
2023/09/08 01:43:50;;;;;;;7.17;3.30;;;;;;;17.66;46.54;101341.84;125631;1098;104272;-76
2023/09/08 01:46:21;;;;;;;10.43;3.27;;;;;;;17.55;46.39;101345.16;125653;1099;101832;-76
2023/09/08 01:48:52;;;;;;;6.27;3.50;;;;;;;17.43;46.53;101340.48;125751;1098;104142;-76
2023/09/08 01:51:24;;;;;;;9.63;3.30;;;;;;;17.35;46.50;101342.09;125799;1099;101998;-76
2023/09/08 01:53:55;;;;;;;11.20;3.30;;;;;;;17.31;46.70;101342.91;125623;1098;103417;-75
2023/09/08 01:56:27;;;;;;;9.43;3.50;;;;;;;17.26;46.71;101339.23;125526;1098;104185;-75
2023/09/08 01:58:59;;;;;;;7.57;3.67;;;;;;;17.22;47.07;101338.29;125661;1099;104278;-76
2023/09/08 02:01:30;;;;;;;9.30;3.20;;;;;;;17.29;46.78;101343.73;125471;1099;104300;-75
2023/09/08 02:04:01;;;;;;;11.50;3.47;;;;;;;17.31;47.07;101336.69;125422;1099;104422;-76
2023/09/08 02:06:33;;;;;;;11.80;3.77;;;;;;;17.22;47.47;101340.94;125461;1099;104294;-75
2023/09/08 02:09:04;;;;;;;16.30;3.73;;;;;;;17.15;47.69;101339.00;125741;1099;104271;-75
2023/09/08 02:11:37;;;;;;;10.83;3.30;;;;;;;17.07;47.30;101345.91;125817;1099;101877;-75
2023/09/08 02:14:08;;;;;;;8.20;3.47;;;;;;;17.00;47.20;101336.92;125697;1099;101811;-74
2023/09/08 02:16:40;;;;;;;10.20;3.40;;;;;;;17.03;47.08;101339.64;125478;1098;104276;-74
2023/09/08 02:19:11;;;;;;;10.53;3.37;;;;;;;17.10;47.89;101340.67;125581;1099;101939;-75
2023/09/08 02:21:42;;;;;;;7.63;3.60;;;;;;;17.12;47.67;101336.28;125527;1099;101807;-75
2023/09/08 02:24:14;;;;;;;9.63;3.13;;;;;;;17.15;47.30;101339.00;125525;1098;101865;-76
2023/09/08 02:26:45;;;;;;;10.23;3.57;;;;;;;17.19;47.36;101343.52;125614;1099;104176;-75
2023/09/08 02:29:17;;;;;;;11.67;3.13;;;;;;;17.17;47.32;101334.65;126282;1099;102044;-75
2023/09/08 02:31:49;;;;;;;7.97;3.20;;;;;;;17.17;47.98;101339.03;125405;1099;104082;-75
2023/09/08 02:34:20;;;;;;;6.63;2.93;;;;;;;17.13;47.85;101332.78;125579;1099;104233;-75
2023/09/08 02:36:51;;;;;;;9.77;3.63;;;;;;;17.04;47.87;101330.81;125744;1099;104192;-75
2023/09/08 02:39:26;;;;;;;5.78;3.10;;;;;;;17.03;48.09;101336.08;125644;1099;101815;-76
2023/09/08 02:41:58;;;;;;;9.13;3.20;;;;;;;17.03;48.30;101341.38;125445;1099;104332;-75
2023/09/08 02:44:29;;;;;;;8.43;3.53;;;;;;;17.01;47.77;101337.80;125533;1098;102003;-75
2023/09/08 02:47:01;;;;;;;10.10;3.63;;;;;;;16.98;47.88;101335.09;125470;1099;101794;-75
2023/09/08 02:49:32;;;;;;;9.57;3.43;;;;;;;16.95;47.71;101337.66;125454;1099;104243;-75
2023/09/08 02:52:04;;;;;;;8.77;3.67;;;;;;;16.86;48.02;101333.95;125465;1099;104178;-75
2023/09/08 02:54:35;;;;;;;9.03;3.47;;;;;;;16.82;48.43;101341.77;125478;1099;102107;-76
2023/09/08 02:57:08;;;;;;;6.70;3.50;;;;;;;16.78;48.85;101334.59;125526;1099;102127;-75
2023/09/08 02:59:39;;;;;;;8.83;3.20;;;;;;;16.77;48.10;101328.41;125753;1099;104313;-76
2023/09/08 03:02:10;;;;;;;13.40;3.40;;;;;;;16.76;48.84;101326.59;125834;1099;101874;-75
2023/09/08 03:04:42;;;;;;;7.65;3.30;;;;;;;16.71;49.02;101333.56;125845;1099;102112;-75
2023/09/08 03:07:14;;;;;;;7.67;3.80;;;;;;;16.67;48.90;101332.59;125339;1099;102154;-75
2023/09/08 03:09:46;;;;;;;12.57;3.60;;;;;;;16.62;48.74;101336.87;125390;1099;104172;-75
2023/09/08 03:12:18;;;;;;;12.33;3.87;;;;;;;16.49;49.43;101340.09;125628;1099;102122;-76
2023/09/08 03:14:49;;;;;;;11.97;3.43;;;;;;;16.40;49.52;101342.52;125693;1099;104122;-76
2023/09/08 03:17:20;;;;;;;11.90;3.80;;;;;;;16.33;49.04;101336.14;125691;1099;104172;-75
2023/09/08 03:19:52;;;;;;;9.83;3.70;;;;;;;16.24;49.19;101342.12;126169;1098;102038;-76
2023/09/08 03:22:24;;;;;;;11.83;3.90;;;;;;;16.23;48.80;101339.42;125577;1098;104169;-76
2023/09/08 03:24:55;;;;;;;8.33;3.60;;;;;;;16.25;48.80;101332.41;125565;1099;101801;-78
2023/09/08 03:27:27;;;;;;;11.70;4.30;;;;;;;16.21;48.94;101330.56;125284;1099;104160;-77
2023/09/08 03:29:59;;;;;;;13.70;4.10;;;;;;;16.12;49.20;101329.44;125574;1099;104211;-78
2023/09/08 03:32:31;;;;;;;11.47;3.57;;;;;;;16.05;49.18;101334.53;125206;1099;104429;-78
2023/09/08 03:35:04;;;;;;;9.30;3.97;;;;;;;15.95;49.47;101338.69;125135;1099;104396;-76
2023/09/08 03:37:36;;;;;;;9.65;3.90;;;;;;;15.85;49.94;101333.98;125627;1099;104242;-77
2023/09/08 03:40:10;;;;;;;10.23;3.73;;;;;;;15.78;50.12;101335.58;125457;1099;104207;-77
2023/09/08 03:42:42;;;;;;;10.45;3.40;;;;;;;15.67;51.36;101337.89;125279;1099;101891;-78
2023/09/08 03:45:14;;;;;;;12.23;4.00;;;;;;;15.57;51.15;101347.33;125534;1098;104194;-78
2023/09/08 03:47:45;;;;;;;10.97;3.47;;;;;;;15.50;51.56;101347.98;125643;1099;104442;-78
2023/09/08 03:50:16;;;;;;;12.07;3.70;;;;;;;15.46;52.56;101339.08;125882;1099;101862;-77
2023/09/08 03:52:48;;;;;;;11.47;3.70;;;;;;;15.45;52.15;101344.32;125619;1099;104329;-77
2023/09/08 03:55:19;;;;;;;10.83;4.13;;;;;;;15.42;53.15;101338.94;125913;1098;104169;-78
2023/09/08 03:57:51;;;;;;;12.97;4.00;;;;;;;15.40;52.24;101340.66;125825;1099;117854;-77
2023/09/08 04:00:23;;;;;;;12.80;4.23;;;;;;;15.37;52.52;101349.38;125864;1099;101977;-78
2023/09/08 04:02:54;;;;;;;17.47;4.57;;;;;;;15.35;53.01;101351.09;125888;1099;101997;-77
2023/09/08 04:05:26;;;;;;;13.93;4.50;;;;;;;15.29;54.00;101350.91;125726;1098;104169;-76
2023/09/08 04:07:59;;;;;;;14.93;4.70;;;;;;;15.26;54.40;101350.82;124981;1099;104262;-77
2023/09/08 04:10:33;;;;;;;11.97;4.30;;;;;;;15.22;54.52;101363.06;125179;1099;103243;-78
2023/09/08 04:13:04;;;;;;;13.83;4.40;;;;;;;15.19;54.81;101362.97;126452;1099;102198;-76
2023/09/08 04:15:38;;;;;;;13.00;4.27;;;;;;;15.19;55.06;101359.41;125849;1099;101981;-76
2023/09/08 04:18:10;;;;;;;13.93;4.30;;;;;;;15.16;55.68;101362.87;125235;1099;111356;-77
2023/09/08 04:20:48;;;;;;;15.03;4.47;;;;;;;15.13;56.12;101369.79;125457;1098;103651;-76
2023/09/08 04:23:21;;;;;;;15.07;4.87;;;;;;;15.08;55.79;101367.92;125015;1099;102430;-77
2023/09/08 04:25:52;;;;;;;13.90;4.80;;;;;;;15.07;55.32;101365.23;125468;1099;101845;-77
2023/09/08 04:28:23;;;;;;;14.93;5.00;;;;;;;15.08;56.34;101369.64;125365;1099;104310;-77
2023/09/08 04:30:55;;;;;;;12.65;5.10;;;;;;;15.06;56.48;101369.59;125316;1098;104265;-77
2023/09/08 04:33:28;;;;;;;12.97;4.90;;;;;;;15.03;56.25;101373.91;125368;1099;104195;-78
2023/09/08 04:36:00;;;;;;;21.10;4.50;;;;;;;15.00;56.67;101366.77;126078;1099;101968;-80
2023/09/08 04:38:32;;;;;;;9.17;4.30;;;;;;;14.98;56.06;101375.52;124790;1099;104267;-79
2023/09/08 04:41:03;;;;;;;13.20;4.50;;;;;;;14.98;57.23;101375.52;125130;1099;104208;-82
2023/09/08 04:43:34;;;;;;;12.33;4.40;;;;;;;15.00;56.76;101389.66;127365;1098;102131;-78
2023/09/08 04:46:06;;;;;;;16.30;4.70;;;;;;;15.02;56.74;101386.23;125454;1099;104176;-79
2023/09/08 04:48:37;;;;;;;10.17;4.47;;;;;;;15.05;57.08;101388.97;125323;1099;102118;-78
2023/09/08 04:51:09;;;;;;;14.93;4.77;;;;;;;15.07;57.04;101396.95;125370;1099;104256;-78
2023/09/08 04:53:40;;;;;;;13.83;4.70;;;;;;;15.11;56.82;101398.81;125429;1098;104166;-79
2023/09/08 04:56:13;;;;;;;12.37;4.70;;;;;;;15.17;56.79;101398.12;125654;1099;101986;-77
2023/09/08 04:58:45;;;;;;;16.80;5.10;;;;;;;15.19;57.40;101404.34;124987;1099;104223;-76
2023/09/08 05:01:19;;;;;;;15.07;4.77;;;;;;;15.21;56.95;101403.55;125146;1099;104235;-76
2023/09/08 05:03:51;;;;;;;18.60;4.97;;;;;;;15.27;56.77;101395.81;125112;1099;104245;-76
2023/09/08 05:06:22;;;;;;;10.90;4.40;;;;;;;15.32;56.96;101389.75;126116;1098;104129;-78
2023/09/08 05:08:54;;;;;;;12.63;4.50;;;;;;;15.34;56.53;101382.78;125961;1099;102379;-77
2023/09/08 05:11:26;;;;;;;9.70;4.17;;;;;;;15.36;57.25;101384.60;125669;1099;102364;-79
2023/09/08 05:14:00;;;;;;;10.57;4.27;;;;;;;15.42;56.52;101383.90;125455;1099;104679;-79
2023/09/08 05:16:44;;;;;;;13.28;4.50;;;;;;;15.46;57.00;101385.80;125028;1099;104210;-78
2023/09/08 05:19:19;;;;;;;11.73;4.87;;;;;;;15.54;57.15;101386.03;125101;1099;104373;-78
2023/09/08 05:21:51;;;;;;;11.23;4.20;;;;;;;15.59;56.19;101387.94;125793;1099;101936;-84
2023/09/08 05:24:26;;;;;;;8.73;3.90;;;;;;;15.65;57.22;101392.52;127409;1098;101914;-75
2023/09/08 05:26:58;;;;;;;13.47;4.03;;;;;;;15.70;57.09;101388.25;124947;1099;104162;-75
2023/09/08 05:29:30;;;;;;;13.37;4.20;;;;;;;15.76;56.16;101388.42;125351;1099;104434;-74
2023/09/08 05:32:04;;;;;;;17.95;4.58;;;;;;;15.81;55.94;101384.19;126102;1099;104309;-78
2023/09/08 05:34:36;;;;;;;13.20;4.20;;;;;;;15.90;56.46;101380.91;124948;1099;102010;-75
2023/09/08 05:37:08;;;;;;;15.60;4.53;;;;;;;15.97;55.68;101380.24;124872;1099;101861;-76
2023/09/08 05:39:41;;;;;;;12.83;4.60;;;;;;;16.05;56.61;101383.10;124624;1099;104239;-74
2023/09/08 05:42:12;;;;;;;10.87;4.13;;;;;;;16.13;55.59;101383.31;124537;1099;104173;-77
2023/09/08 05:44:45;;;;;;;10.67;4.10;;;;;;;16.17;55.31;101383.44;125220;1099;104259;-75
2023/09/08 05:47:17;;;;;;;11.33;4.20;;;;;;;16.23;55.05;101381.80;124999;1099;101922;-76
2023/09/08 05:49:49;;;;;;;13.13;3.93;;;;;;;16.29;55.38;101377.55;124727;1099;104169;-76
2023/09/08 05:52:21;;;;;;;13.07;3.83;;;;;;;16.32;55.15;101382.92;124885;1099;102216;-76
2023/09/08 05:54:53;;;;;;;14.45;4.45;;;;;;;16.36;54.61;101378.59;124725;1099;104367;-76
2023/09/08 05:57:27;;;;;;;10.47;3.90;;;;;;;16.40;54.58;101383.13;125320;1099;104255;-78
2023/09/08 05:59:59;;;;;;;10.35;3.90;;;;;;;16.42;54.66;101392.00;124484;1099;104261;-74
2023/09/08 06:02:30;;;;;;;13.33;3.87;;;;;;;16.46;54.22;101393.00;125143;1099;104223;-80
2023/09/08 06:05:04;;;;;;;11.80;4.40;;;;;;;16.51;53.62;101399.30;124732;1099;104217;-76
2023/09/08 06:07:36;;;;;;;11.03;3.97;;;;;;;16.56;54.04;101404.72;124897;1098;101888;-77
2023/09/08 06:10:10;;;;;;;10.13;4.13;;;;;;;16.61;54.26;101398.69;124872;1099;104217;-78
2023/09/08 06:12:43;;;;;;;12.10;3.63;;;;;;;16.69;54.24;101394.47;125180;1098;104156;-79
2023/09/08 06:15:16;;;;;;;12.97;4.40;;;;;;;16.76;53.53;101410.52;125169;1099;102032;-78
2023/09/08 06:17:49;;;;;;;10.07;3.80;;;;;;;16.82;53.69;101403.61;124882;1099;104278;-77
2023/09/08 06:20:24;;;;;;;14.40;3.73;;;;;;;16.92;53.20;101402.10;125930;1098;104031;-80
2023/09/08 06:23:05;;;;;;;11.50;4.50;;;;;;;17.02;53.43;101403.24;125307;1099;104741;-78
2023/09/08 06:25:37;;;;;;;12.40;4.07;;;;;;;17.09;53.29;101399.85;125382;1099;104338;-81
2023/09/08 06:28:08;;;;;;;9.60;4.10;;;;;;;17.18;53.02;101400.06;125744;1099;101922;-81
2023/09/08 06:30:42;;;;;;;15.00;3.97;;;;;;;17.28;53.52;101401.20;126619;1098;101941;-78
2023/09/08 06:33:17;;;;;;;13.88;3.80;;;;;;;17.36;53.33;101402.25;125304;1099;104288;-77
2023/09/08 06:35:50;;;;;;;20.60;4.17;;;;;;;17.46;53.35;101395.38;124868;1099;101932;-77
2023/09/08 06:38:31;;;;;;;;;;;;;;;17.55;52.47;101395.58;125580;1099;104234;-81
2023/09/08 06:41:11;;;;;;;13.33;3.83;;;;;;;17.65;52.56;101395.78;126251;1099;104201;-77
2023/09/08 06:43:44;;;;;;;10.90;3.57;;;;;;;17.65;52.46;101387.81;125797;1099;104331;-79
2023/09/08 06:46:25;;;;;;;9.93;3.20;;;;;;;17.78;52.38;101403.14;126138;1099;103793;-80
2023/09/08 06:49:20;;;;;;;10.13;4.00;;;;;;;17.90;52.33;101395.47;126424;1098;102115;-80
2023/09/08 06:52:44;;;;;;;11.27;3.60;;;;;;;18.04;51.86;101392.16;125682;1102;111588;-82
2023/09/08 06:55:29;;;;;;;15.17;4.00;;;;;;;18.21;51.17;101389.83;125764;1102;102028;-82
2023/09/08 06:58:02;;;;;;;12.63;4.03;;;;;;;18.37;51.21;101385.68;124943;1099;104335;-77
2023/09/08 07:00:34;;;;;;;17.33;4.03;;;;;;;18.53;51.22;101392.16;124836;1098;104382;-75
2023/09/08 07:03:07;;;;;;;14.20;3.55;;;;;;;18.67;51.01;101383.55;125238;1098;104162;-79
2023/09/08 07:05:42;;;;;;;9.43;3.43;;;;;;;18.85;50.57;101390.06;125464;1099;104268;-78
2023/09/08 07:08:14;;;;;;;8.90;3.77;;;;;;;18.97;50.85;101387.59;125496;1099;101832;-81
2023/09/08 07:10:45;;;;;;;15.50;3.50;;;;;;;19.15;50.54;101373.69;126698;1099;102112;-79
2023/09/08 07:13:21;;;;;;;14.10;3.73;;;;;;;19.29;49.88;101379.21;126065;1099;104172;-80
2023/09/08 07:15:55;;;;;;;13.87;4.57;;;;;;;19.40;49.81;101380.24;125450;1099;101890;-81
2023/09/08 07:18:35;;;;;;;12.83;4.00;;;;;;;19.58;49.25;101386.67;126609;1098;102021;-83
2023/09/08 07:21:19;;;;;;;6.70;3.10;;;;;;;19.72;48.48;101381.52;126415;1098;102248;-79
2023/09/08 07:23:53;;;;;;;8.53;3.03;;;;;;;19.91;47.36;101374.66;126045;1098;102115;-80
2023/09/08 07:26:25;;;;;;;5.27;3.07;;;;;;;20.08;47.75;101373.06;125298;1099;102003;-79
2023/09/08 07:28:59;;;;;;;8.13;3.00;;;;;;;20.38;47.78;101379.61;125178;1099;101974;-81
2023/09/08 07:31:35;;;;;;;13.73;3.23;;;;;;;20.64;47.21;101376.25;126023;1099;104230;-79
2023/09/08 07:34:07;;;;;;;5.53;2.70;;;;;;;20.89;46.07;101374.70;125176;1098;102043;-78
2023/09/08 07:36:40;;;;;;;6.93;3.20;;;;;;;21.05;45.88;101373.05;125149;1098;104166;-79
2023/09/08 07:39:14;;;;;;;8.67;3.33;;;;;;;21.16;46.49;101371.33;125039;1098;104251;-79
2023/09/08 07:41:52;;;;;;;9.87;3.20;;;;;;;21.31;45.90;101358.95;125165;1099;101945;-77
2023/09/08 07:44:23;;;;;;;7.77;3.80;;;;;;;21.52;44.86;101372.44;124760;1099;111678;-75
2023/09/08 07:46:56;;;;;;;8.70;3.30;;;;;;;21.74;44.59;101364.51;125008;1099;104254;-76
2023/09/08 07:52:51;;;;;;;8.90;3.50;;;;;;;21.66;44.58;101359.14;126155;1098;104245;-78
2023/09/08 07:55:27;;;;;;;8.40;3.33;;;;;;;21.73;42.94;101362.71;125616;1099;102302;-78
2023/09/08 07:58:04;;;;;;;11.70;3.90;;;;;;;21.89;42.80;101360.97;126324;1098;104166;-79
2023/09/08 08:00:36;;;;;;;11.60;4.10;;;;;;;22.05;42.75;101356.58;125208;1099;104249;-78
2023/09/08 08:03:09;;;;;;;8.70;3.50;;;;;;;22.18;42.58;101363.70;125205;1099;101976;-80
2023/09/08 08:05:41;;;;;;;10.00;3.40;;;;;;;22.31;42.17;101358.41;125403;1099;104165;-79
2023/09/08 08:08:16;;;;;;;8.50;3.53;;;;;;;22.31;41.74;101364.64;125213;1099;101868;-80
2023/09/08 08:10:49;;;;;;;9.80;3.40;;;;;;;22.34;40.30;101353.06;125186;1099;102189;-81
2023/09/08 08:13:20;;;;;;;;;;;;;;;22.34;40.44;101350.39;125548;1099;104166;-76
2023/09/08 08:15:55;;;;;;;6.17;2.50;;;;;;;22.22;39.18;101359.25;125638;1099;104166;-80
2023/09/08 08:18:27;;;;;;;4.33;2.27;;;;;;;22.14;40.05;101353.01;126347;1098;101977;-80
2023/09/08 08:21:00;;;;;;;5.07;2.77;;;;;;;22.15;39.17;101350.34;125524;1099;104265;-83
2023/09/08 08:23:41;;;;;;;9.77;2.63;;;;;;;22.20;39.22;101347.67;126204;1098;102462;-80
2023/09/08 08:26:19;;;;;;;7.27;2.70;;;;;;;22.14;37.90;101351.22;126617;1099;101626;-78
2023/09/08 08:28:51;;;;;;;7.73;2.37;;;;;;;22.13;37.85;101346.78;125556;1099;104236;-78
2023/09/08 08:31:34;;;;;;;5.83;2.43;;;;;;;22.16;38.99;101349.46;125486;1099;104160;-82
2023/09/08 08:34:14;;;;;;;7.40;2.60;;;;;;;22.17;37.92;101351.22;126467;1099;104195;-79
2023/09/08 08:36:46;;;;;;;5.03;2.37;;;;;;;22.21;37.32;101350.34;126674;1098;104232;-81
2023/09/08 08:39:19;;;;;;;5.28;2.30;;;;;;;22.33;37.69;101343.25;125563;1099;101804;-78
2023/09/08 08:41:52;;;;;;;5.77;2.70;;;;;;;22.39;37.08;101337.91;124947;1098;104328;-79
2023/09/08 08:44:27;;;;;;;8.20;2.77;;;;;;;22.56;36.69;101338.83;124982;1099;102218;-79
2023/09/08 08:47:01;;;;;;;7.03;2.47;;;;;;;22.68;37.17;101340.58;125637;1099;104169;-80
2023/09/08 08:49:34;;;;;;;7.80;2.67;;;;;;;22.74;37.27;101335.22;125413;1098;104175;-76
2023/09/08 08:52:07;;;;;;;10.07;2.80;;;;;;;22.79;37.19;101330.74;125425;1098;104274;-79
2023/09/08 08:54:40;;;;;;;6.40;2.90;;;;;;;22.85;37.39;101329.85;125118;1099;104236;-77
2023/09/08 08:57:15;;;;;;;6.97;3.03;;;;;;;23.00;37.33;101333.38;124738;1099;104405;-78
2023/09/08 08:59:52;;;;;;;9.40;2.60;;;;;;;23.03;36.80;101331.61;125187;1099;104242;-79
2023/09/08 09:02:26;;;;;;;6.75;2.80;;;;;;;23.08;36.80;101331.60;126293;1098;102111;-80
2023/09/08 09:05:00;;;;;;;5.73;2.70;;;;;;;23.21;36.91;101328.00;125271;1099;104169;-80
2023/09/08 09:07:37;;;;;;;7.63;2.97;;;;;;;23.19;35.63;101327.12;125317;1098;104235;-83
2023/09/08 09:10:12;;;;;;;3.70;2.50;;;;;;;23.19;35.09;101329.81;126099;1099;104220;-83
2023/09/08 09:12:44;;;;;;;10.53;2.47;;;;;;;23.29;35.34;101328.86;125571;1099;104214;-80
2023/09/08 09:15:16;;;;;;;6.93;2.70;;;;;;;23.38;35.11;101321.70;126809;1098;102089;-85
2023/09/08 09:18:05;;;;;;;2.97;2.30;;;;;;;23.47;35.73;101327.03;125524;1099;102044;-79
2023/09/08 09:20:41;;;;;;;7.97;2.87;;;;;;;23.59;35.55;101324.29;126443;1097;102126;-79
2023/09/08 09:23:27;;;;;;;5.00;2.50;;;;;;;23.61;33.75;101322.48;125328;1099;102019;-79
2023/09/08 09:25:59;;;;;;;7.30;2.40;;;;;;;23.57;32.96;101317.15;124978;1099;104277;-78
2023/09/08 09:28:35;;;;;;;5.43;2.73;;;;;;;23.64;33.32;101317.11;125444;1099;102471;-79
2023/09/08 09:31:07;;;;;;;6.97;2.73;;;;;;;23.68;33.31;101307.25;126371;1098;104175;-81
2023/09/08 09:33:41;;;;;;;8.40;2.67;;;;;;;23.76;33.62;101309.89;126706;1099;101945;-77
2023/09/08 09:36:24;;;;;;;4.10;2.52;;;;;;;23.85;33.75;101300.03;126348;1099;102386;-80
2023/09/08 09:39:03;;;;;;;10.17;2.83;;;;;;;23.88;33.18;101296.45;126660;1098;104211;-83
2023/09/08 09:41:41;;;;;;;5.80;2.53;;;;;;;23.92;33.35;101306.27;126183;1099;104185;-81
2023/09/08 09:44:14;;;;;;;6.33;2.67;;;;;;;23.97;32.96;101296.39;126498;1099;101879;-81
2023/09/08 09:46:54;;;;;;;4.57;2.30;;;;;;;24.02;32.64;101299.91;124685;1099;104245;-81
2023/09/08 09:49:31;;;;;;;10.03;2.70;;;;;;;24.08;33.10;101298.11;125948;1099;102203;-79
2023/09/08 09:52:06;;;;;;;5.30;2.70;;;;;;;24.15;33.08;101291.78;125101;1099;101998;-81
2023/09/08 09:54:38;;;;;;;6.10;2.43;;;;;;;24.19;33.11;101291.74;126115;1099;104170;-82
2023/09/08 09:57:12;;;;;;;7.30;2.67;;;;;;;24.18;32.63;101292.67;127363;1098;101629;-82
2023/09/08 09:59:45;;;;;;;8.13;2.50;;;;;;;24.12;31.95;101281.08;126226;1099;102372;-84
2023/09/08 10:02:20;;;;;;;9.53;3.40;;;;;;;24.13;31.67;101289.11;125519;1099;104341;-82
2023/09/08 10:04:52;;;;;;;5.10;2.60;;;;;;;24.14;31.11;101273.94;126333;1098;102254;-83
2023/09/08 10:07:24;;;;;;;4.37;2.80;;;;;;;24.15;30.50;101271.24;126660;1098;101781;-82
2023/09/08 10:09:56;;;;;;;6.60;2.80;;;;;;;24.12;30.71;101284.67;125535;1099;101842;-82
2023/09/08 10:12:31;;;;;;;7.40;2.60;;;;;;;24.11;30.39;101284.69;126293;1098;102224;-80
2023/09/08 10:15:06;;;;;;;5.77;2.70;;;;;;;24.10;30.45;101282.89;126306;1098;101984;-83
2023/09/08 10:17:38;;;;;;;7.28;2.92;;;;;;;24.14;30.81;101284.66;126456;1097;102025;-80
2023/09/08 10:20:12;;;;;;;8.63;2.93;;;;;;;24.20;30.57;101273.89;126404;1098;101696;-84
2023/09/08 10:22:42;;;;;;;;;;;;;;;24.25;29.92;101272.05;126525;1098;101807;-83
2023/09/08 10:25:16;;;;;;;6.73;2.80;;;;;;;24.31;30.91;101268.40;125685;1099;104104;-83
2023/09/08 10:27:51;;;;;;;5.27;2.80;;;;;;;24.36;29.82;101269.27;126882;1098;101858;-80
2023/09/08 10:30:23;;;;;;;8.23;2.40;;;;;;;24.43;30.31;101262.05;126486;1098;102051;-80
2023/09/08 10:32:55;;;;;;;5.23;2.27;;;;;;;24.40;30.32;101255.81;126001;1098;101972;-79
2023/09/08 10:35:30;;;;;;;4.40;2.40;;;;;;;24.45;30.70;101257.55;125391;1098;104191;-80
2023/09/08 10:38:24;;;;;;;6.03;2.87;;;;;;;24.43;29.74;101248.63;126459;1098;102423;-77
2023/09/08 10:41:33;;;;;;;11.27;3.30;;;;;;;24.52;30.11;101238.69;125356;1099;104207;-79
2023/09/08 10:44:09;;;;;;;9.53;3.33;;;;;;;24.64;30.06;101242.20;125593;1099;104255;-82
2023/09/08 10:46:50;;;;;;;6.45;3.00;;;;;;;24.67;29.38;101245.73;125910;1098;104201;-81
2023/09/08 10:49:24;;;;;;;10.63;3.20;;;;;;;24.65;29.71;101244.88;126648;1098;101775;-81
2023/09/08 10:52:09;;;;;;;8.40;3.23;;;;;;;24.60;29.37;101241.33;125909;1099;104288;-82
2023/09/08 10:54:49;;;;;;;6.07;3.23;;;;;;;24.67;29.69;101236.81;126953;1099;102185;-79
2023/09/08 10:57:23;;;;;;;9.67;3.30;;;;;;;24.78;29.62;101240.25;125780;1098;104222;-79
2023/09/08 11:03:03;;;;;;;9.10;3.10;;;;;;;24.96;29.37;101227.51;125215;1099;101871;-77
2023/09/08 11:05:35;;;;;;;7.67;2.50;;;;;;;24.99;28.39;101228.34;125168;1099;102277;-77
2023/09/08 11:08:07;;;;;;;4.70;2.60;;;;;;;25.02;28.81;101222.94;125019;1099;104085;-77
2023/09/08 11:10:42;;;;;;;10.80;3.45;;;;;;;25.03;28.28;101219.36;125822;1099;101941;-76
2023/09/08 11:13:14;;;;;;;8.30;3.10;;;;;;;25.04;28.35;101212.18;126395;1098;104169;-79
2023/09/08 11:15:53;;;;;;;10.33;4.00;;;;;;;25.03;28.82;101208.62;125910;1098;104227;-83
2023/09/08 11:18:30;;;;;;;5.50;2.80;;;;;;;25.09;28.29;101205.86;127114;1098;101904;-78
2023/09/08 11:21:09;;;;;;;7.03;2.77;;;;;;;25.12;28.39;101205.81;126811;1098;104057;-81
2023/09/08 11:23:43;;;;;;;8.10;3.23;;;;;;;25.10;28.61;101201.36;126415;1098;101964;-79
2023/09/08 11:26:16;;;;;;;7.80;2.80;;;;;;;25.10;28.77;101187.94;125005;1099;104208;-80
2023/09/08 11:28:49;;;;;;;8.13;2.80;;;;;;;25.13;28.78;101193.27;125164;1099;102099;-77
2023/09/08 11:31:21;;;;;;;7.17;2.77;;;;;;;25.11;28.05;101193.29;126453;1098;104204;-81
2023/09/08 11:33:59;;;;;;;6.73;2.93;;;;;;;25.11;28.50;101185.23;126474;1098;102424;-82
2023/09/08 11:36:36;;;;;;;9.40;2.80;;;;;;;25.19;28.97;101186.94;125563;1099;102122;-81
2023/09/08 11:39:10;;;;;;;7.20;2.97;;;;;;;25.23;28.42;101186.00;125572;1099;111338;-82
2023/09/08 11:41:41;;;;;;;6.60;2.70;;;;;;;25.20;27.98;101186.03;125307;1099;103375;-79
2023/09/08 11:44:21;;;;;;;6.13;2.63;;;;;;;25.18;27.39;101177.09;126398;1098;104166;-78